sensor_id;sensor_type;location;lat;lon;timestamp;temperature;humidity
1301;DHT22;59099;48.806;9.160;2022-11-20T00:01:09;6.00;99.90
1301;DHT22;59099;48.806;9.160;2022-11-20T00:03:36;6.00;99.90
1301;DHT22;59099;48.806;9.160;2022-11-20T00:06:10;6.10;99.90
1301;DHT22;59099;48.806;9.160;2022-11-20T00:08:36;6.10;99.90
1301;DHT22;59099;48.806;9.160;2022-11-20T00:11:12;6.10;99.90
1301;DHT22;59099;48.806;9.160;2022-11-20T00:13:39;5.90;99.90
1301;DHT22;59099;48.806;9.160;2022-11-20T00:16:08;5.90;99.90
1301;DHT22;59099;48.806;9.160;2022-11-20T00:18:35;5.90;99.90
1301;DHT22;59099;48.806;9.160;2022-11-20T00:21:06;5.90;99.90
1301;DHT22;59099;48.806;9.160;2022-11-20T00:23:32;5.90;99.90
1301;DHT22;59099;48.806;9.160;2022-11-20T00:26:06;5.90;99.90
1301;DHT22;59099;48.806;9.160;2022-11-20T00:28:32;5.90;99.90
1301;DHT22;59099;48.806;9.160;2022-11-20T00:31:07;5.90;99.90
1301;DHT22;59099;48.806;9.160;2022-11-20T00:33:33;5.90;99.90
1301;DHT22;59099;48.806;9.160;2022-11-20T00:36:04;6.00;99.90
1301;DHT22;59099;48.806;9.160;2022-11-20T00:38:33;5.90;99.90
1301;DHT22;59099;48.806;9.160;2022-11-20T00:41:06;5.90;99.90
1301;DHT22;59099;48.806;9.160;2022-11-20T00:43:32;5.90;99.90
1301;DHT22;59099;48.806;9.160;2022-11-20T00:46:05;5.90;99.90
1301;DHT22;59099;48.806;9.160;2022-11-20T00:48:32;5.90;99.90
1301;DHT22;59099;48.806;9.160;2022-11-20T00:50:58;5.80;99.90
1301;DHT22;59099;48.806;9.160;2022-11-20T00:53:24;5.80;99.90
1301;DHT22;59099;48.806;9.160;2022-11-20T00:55:58;5.80;99.90
1301;DHT22;59099;48.806;9.160;2022-11-20T00:58:28;5.90;99.90
1301;DHT22;59099;48.806;9.160;2022-11-20T01:01:03;5.80;99.90
1301;DHT22;59099;48.806;9.160;2022-11-20T01:03:32;5.80;99.90
1301;DHT22;59099;48.806;9.160;2022-11-20T01:06:02;5.80;99.90
1301;DHT22;59099;48.806;9.160;2022-11-20T01:08:32;6.00;99.90
1301;DHT22;59099;48.806;9.160;2022-11-20T01:11:10;6.00;99.90
1301;DHT22;59099;48.806;9.160;2022-11-20T01:13:36;6.00;99.90
1301;DHT22;59099;48.806;9.160;2022-11-20T01:18:36;5.90;99.90
1301;DHT22;59099;48.806;9.160;2022-11-20T01:21:08;5.90;99.90
1301;DHT22;59099;48.806;9.160;2022-11-20T01:23:36;5.90;99.90
1301;DHT22;59099;48.806;9.160;2022-11-20T01:26:04;5.90;99.90
1301;DHT22;59099;48.806;9.160;2022-11-20T01:28:31;5.90;99.90
1301;DHT22;59099;48.806;9.160;2022-11-20T01:30:57;6.00;99.90
1301;DHT22;59099;48.806;9.160;2022-11-20T01:33:22;6.00;99.90
1301;DHT22;59099;48.806;9.160;2022-11-20T01:35:52;6.00;99.90
1301;DHT22;59099;48.806;9.160;2022-11-20T01:38:18;6.00;99.90
1301;DHT22;59099;48.806;9.160;2022-11-20T01:40:53;6.00;99.90
1301;DHT22;59099;48.806;9.160;2022-11-20T01:43:19;6.00;99.90
1301;DHT22;59099;48.806;9.160;2022-11-20T01:46:14;6.10;99.90
1301;DHT22;59099;48.806;9.160;2022-11-20T01:51:27;6.10;99.90
1301;DHT22;59099;48.806;9.160;2022-11-20T01:53:57;6.10;99.90
1301;DHT22;59099;48.806;9.160;2022-11-20T01:56:26;6.00;99.90
1301;DHT22;59099;48.806;9.160;2022-11-20T01:58:56;6.00;99.90
1301;DHT22;59099;48.806;9.160;2022-11-20T02:01:23;6.00;99.90
1301;DHT22;59099;48.806;9.160;2022-11-20T02:03:49;6.00;99.90
1301;DHT22;59099;48.806;9.160;2022-11-20T02:06:32;6.00;99.90
1301;DHT22;59099;48.806;9.160;2022-11-20T02:08:59;6.00;99.90
1301;DHT22;59099;48.806;9.160;2022-11-20T02:11:25;6.00;99.90
1301;DHT22;59099;48.806;9.160;2022-11-20T02:16:41;6.00;99.90
1301;DHT22;59099;48.806;9.160;2022-11-20T02:24:30;6.00;99.90
1301;DHT22;59099;48.806;9.160;2022-11-20T02:37:44;5.80;99.90
1301;DHT22;59099;48.806;9.160;2022-11-20T02:40:11;5.80;99.90
1301;DHT22;59099;48.806;9.160;2022-11-20T02:42:38;5.80;99.90
1301;DHT22;59099;48.806;9.160;2022-11-20T02:45:04;5.90;99.90
1301;DHT22;59099;48.806;9.160;2022-11-20T02:47:30;5.80;99.90
1301;DHT22;59099;48.806;9.160;2022-11-20T02:49:56;5.80;99.90
1301;DHT22;59099;48.806;9.160;2022-11-20T02:52:23;5.80;99.90
1301;DHT22;59099;48.806;9.160;2022-11-20T02:54:52;5.80;99.90
1301;DHT22;59099;48.806;9.160;2022-11-20T02:57:19;5.80;99.90
1301;DHT22;59099;48.806;9.160;2022-11-20T02:59:44;5.80;99.90
1301;DHT22;59099;48.806;9.160;2022-11-20T03:02:11;5.80;99.90
1301;DHT22;59099;48.806;9.160;2022-11-20T03:04:36;5.70;99.90
1301;DHT22;59099;48.806;9.160;2022-11-20T03:07:02;5.70;99.90
1301;DHT22;59099;48.806;9.160;2022-11-20T03:09:28;5.70;99.90
1301;DHT22;59099;48.806;9.160;2022-11-20T03:11:54;5.80;99.90
1301;DHT22;59099;48.806;9.160;2022-11-20T03:14:20;5.80;99.90
1301;DHT22;59099;48.806;9.160;2022-11-20T03:16:45;5.80;99.90
1301;DHT22;59099;48.806;9.160;2022-11-20T03:19:12;5.80;99.90
1301;DHT22;59099;48.806;9.160;2022-11-20T03:21:37;5.80;99.90
1301;DHT22;59099;48.806;9.160;2022-11-20T03:24:03;5.80;99.90
1301;DHT22;59099;48.806;9.160;2022-11-20T03:26:29;5.90;99.90
1301;DHT22;59099;48.806;9.160;2022-11-20T03:29:00;5.80;99.90
1301;DHT22;59099;48.806;9.160;2022-11-20T03:31:37;5.80;99.90
1301;DHT22;59099;48.806;9.160;2022-11-20T03:34:04;5.80;99.90
1301;DHT22;59099;48.806;9.160;2022-11-20T03:36:30;5.80;99.90
1301;DHT22;59099;48.806;9.160;2022-11-20T03:38:56;5.70;99.90
1301;DHT22;59099;48.806;9.160;2022-11-20T03:41:27;5.70;99.90
1301;DHT22;59099;48.806;9.160;2022-11-20T03:44:00;5.70;99.90
1301;DHT22;59099;48.806;9.160;2022-11-20T03:46:27;5.80;99.90
1301;DHT22;59099;48.806;9.160;2022-11-20T03:48:54;5.70;99.90
1301;DHT22;59099;48.806;9.160;2022-11-20T03:51:22;5.70;99.90
1301;DHT22;59099;48.806;9.160;2022-11-20T03:53:50;5.60;99.90
1301;DHT22;59099;48.806;9.160;2022-11-20T03:56:18;5.50;99.90
1301;DHT22;59099;48.806;9.160;2022-11-20T03:58:44;5.50;99.90
1301;DHT22;59099;48.806;9.160;2022-11-20T04:01:15;5.50;99.90
1301;DHT22;59099;48.806;9.160;2022-11-20T04:03:43;5.50;99.90
1301;DHT22;59099;48.806;9.160;2022-11-20T04:06:15;5.40;99.90
1301;DHT22;59099;48.806;9.160;2022-11-20T04:08:41;5.40;99.90
1301;DHT22;59099;48.806;9.160;2022-11-20T04:11:26;5.30;99.90
1301;DHT22;59099;48.806;9.160;2022-11-20T04:13:55;5.30;99.90
1301;DHT22;59099;48.806;9.160;2022-11-20T04:16:22;5.30;99.90
1301;DHT22;59099;48.806;9.160;2022-11-20T04:18:53;5.30;99.90
1301;DHT22;59099;48.806;9.160;2022-11-20T04:21:19;5.30;99.90
1301;DHT22;59099;48.806;9.160;2022-11-20T04:23:45;5.40;99.90
1301;DHT22;59099;48.806;9.160;2022-11-20T04:26:12;5.40;99.90
1301;DHT22;59099;48.806;9.160;2022-11-20T04:28:38;5.40;99.90
1301;DHT22;59099;48.806;9.160;2022-11-20T04:31:07;5.50;99.90
1301;DHT22;59099;48.806;9.160;2022-11-20T04:33:34;5.50;99.90
1301;DHT22;59099;48.806;9.160;2022-11-20T04:36:09;5.50;99.90
1301;DHT22;59099;48.806;9.160;2022-11-20T04:38:36;5.50;99.90
1301;DHT22;59099;48.806;9.160;2022-11-20T04:41:04;5.50;99.90
1301;DHT22;59099;48.806;9.160;2022-11-20T04:43:31;5.50;99.90
1301;DHT22;59099;48.806;9.160;2022-11-20T04:45:58;5.50;99.90
1301;DHT22;59099;48.806;9.160;2022-11-20T04:48:24;5.60;99.90
1301;DHT22;59099;48.806;9.160;2022-11-20T04:50:51;5.60;99.90
1301;DHT22;59099;48.806;9.160;2022-11-20T04:53:17;5.60;99.90
1301;DHT22;59099;48.806;9.160;2022-11-20T04:55:44;5.60;99.90
1301;DHT22;59099;48.806;9.160;2022-11-20T04:58:10;5.60;99.90
1301;DHT22;59099;48.806;9.160;2022-11-20T05:00:35;5.50;99.90
1301;DHT22;59099;48.806;9.160;2022-11-20T05:03:01;5.60;99.90
1301;DHT22;59099;48.806;9.160;2022-11-20T05:05:27;5.70;99.90
1301;DHT22;59099;48.806;9.160;2022-11-20T05:07:54;5.70;99.90
1301;DHT22;59099;48.806;9.160;2022-11-20T05:10:21;5.70;99.90
1301;DHT22;59099;48.806;9.160;2022-11-20T05:12:46;5.70;99.90
1301;DHT22;59099;48.806;9.160;2022-11-20T05:15:12;5.60;99.90
1301;DHT22;59099;48.806;9.160;2022-11-20T05:17:38;5.70;99.90
1301;DHT22;59099;48.806;9.160;2022-11-20T05:20:04;5.70;99.90
1301;DHT22;59099;48.806;9.160;2022-11-20T05:22:30;5.80;99.90
1301;DHT22;59099;48.806;9.160;2022-11-20T05:24:55;5.80;99.90
1301;DHT22;59099;48.806;9.160;2022-11-20T05:27:21;5.80;99.90
1301;DHT22;59099;48.806;9.160;2022-11-20T05:29:47;5.80;99.90
1301;DHT22;59099;48.806;9.160;2022-11-20T05:32:12;5.80;99.90
1301;DHT22;59099;48.806;9.160;2022-11-20T05:34:38;5.80;99.90
1301;DHT22;59099;48.806;9.160;2022-11-20T05:37:04;5.80;99.90
1301;DHT22;59099;48.806;9.160;2022-11-20T05:39:30;5.80;99.90
1301;DHT22;59099;48.806;9.160;2022-11-20T05:41:55;5.80;99.90
1301;DHT22;59099;48.806;9.160;2022-11-20T05:44:40;5.90;99.90
1301;DHT22;59099;48.806;9.160;2022-11-20T05:47:06;5.90;99.90
1301;DHT22;59099;48.806;9.160;2022-11-20T05:49:31;5.90;99.90
1301;DHT22;59099;48.806;9.160;2022-11-20T05:51:58;5.90;99.90
1301;DHT22;59099;48.806;9.160;2022-11-20T05:54:23;6.00;99.90
1301;DHT22;59099;48.806;9.160;2022-11-20T05:56:49;6.00;99.90
1301;DHT22;59099;48.806;9.160;2022-11-20T05:59:15;6.00;99.90
1301;DHT22;59099;48.806;9.160;2022-11-20T06:01:40;6.00;99.90
1301;DHT22;59099;48.806;9.160;2022-11-20T06:04:06;6.10;99.90
1301;DHT22;59099;48.806;9.160;2022-11-20T06:06:32;6.10;99.90
1301;DHT22;59099;48.806;9.160;2022-11-20T06:08:57;6.10;99.90
1301;DHT22;59099;48.806;9.160;2022-11-20T06:11:24;6.10;99.90
1301;DHT22;59099;48.806;9.160;2022-11-20T06:13:50;6.10;99.90
1301;DHT22;59099;48.806;9.160;2022-11-20T06:16:18;6.10;99.90
1301;DHT22;59099;48.806;9.160;2022-11-20T06:18:45;6.10;99.90
1301;DHT22;59099;48.806;9.160;2022-11-20T06:21:20;6.10;99.90
1301;DHT22;59099;48.806;9.160;2022-11-20T06:23:46;6.20;99.90
1301;DHT22;59099;48.806;9.160;2022-11-20T06:26:15;6.20;99.90
1301;DHT22;59099;48.806;9.160;2022-11-20T06:28:41;6.20;99.90
1301;DHT22;59099;48.806;9.160;2022-11-20T06:31:07;6.20;99.90
1301;DHT22;59099;48.806;9.160;2022-11-20T06:33:33;6.20;99.90
1301;DHT22;59099;48.806;9.160;2022-11-20T06:36:00;6.20;99.90
1301;DHT22;59099;48.806;9.160;2022-11-20T06:38:26;6.30;99.90
1301;DHT22;59099;48.806;9.160;2022-11-20T06:40:52;6.20;99.90
1301;DHT22;59099;48.806;9.160;2022-11-20T06:43:18;6.20;99.90
1301;DHT22;59099;48.806;9.160;2022-11-20T06:45:44;6.30;99.90
1301;DHT22;59099;48.806;9.160;2022-11-20T06:48:10;6.30;99.90
1301;DHT22;59099;48.806;9.160;2022-11-20T06:50:38;6.30;99.90
1301;DHT22;59099;48.806;9.160;2022-11-20T06:53:04;6.20;99.90
1301;DHT22;59099;48.806;9.160;2022-11-20T06:55:31;6.30;99.90
1301;DHT22;59099;48.806;9.160;2022-11-20T06:57:57;6.30;99.90
1301;DHT22;59099;48.806;9.160;2022-11-20T07:00:23;6.30;99.90
1301;DHT22;59099;48.806;9.160;2022-11-20T07:02:49;6.30;99.90
1301;DHT22;59099;48.806;9.160;2022-11-20T07:05:15;6.30;99.90
1301;DHT22;59099;48.806;9.160;2022-11-20T07:07:41;6.20;99.90
1301;DHT22;59099;48.806;9.160;2022-11-20T07:10:08;6.30;99.90
1301;DHT22;59099;48.806;9.160;2022-11-20T07:12:33;6.30;99.90
1301;DHT22;59099;48.806;9.160;2022-11-20T07:14:59;6.30;99.90
1301;DHT22;59099;48.806;9.160;2022-11-20T07:17:25;6.40;99.90
1301;DHT22;59099;48.806;9.160;2022-11-20T07:19:51;6.40;99.90
1301;DHT22;59099;48.806;9.160;2022-11-20T07:22:17;6.40;99.90
1301;DHT22;59099;48.806;9.160;2022-11-20T07:24:42;6.40;99.90
1301;DHT22;59099;48.806;9.160;2022-11-20T07:27:08;6.40;99.90
1301;DHT22;59099;48.806;9.160;2022-11-20T07:29:34;6.40;99.90
1301;DHT22;59099;48.806;9.160;2022-11-20T07:31:59;6.40;99.90
1301;DHT22;59099;48.806;9.160;2022-11-20T07:34:25;6.40;99.90
1301;DHT22;59099;48.806;9.160;2022-11-20T07:36:51;6.40;99.90
1301;DHT22;59099;48.806;9.160;2022-11-20T07:39:16;6.50;99.90
1301;DHT22;59099;48.806;9.160;2022-11-20T07:41:42;6.50;99.90
1301;DHT22;59099;48.806;9.160;2022-11-20T07:44:08;6.50;99.90
1301;DHT22;59099;48.806;9.160;2022-11-20T07:46:33;6.60;99.90
1301;DHT22;59099;48.806;9.160;2022-11-20T07:48:59;6.60;99.90
1301;DHT22;59099;48.806;9.160;2022-11-20T07:51:25;6.70;99.90
1301;DHT22;59099;48.806;9.160;2022-11-20T07:53:54;6.70;99.90
1301;DHT22;59099;48.806;9.160;2022-11-20T07:56:20;6.70;99.90
1301;DHT22;59099;48.806;9.160;2022-11-20T07:58:45;6.70;99.90
1301;DHT22;59099;48.806;9.160;2022-11-20T08:01:11;6.60;99.90
1301;DHT22;59099;48.806;9.160;2022-11-20T08:03:37;6.60;99.90
1301;DHT22;59099;48.806;9.160;2022-11-20T08:06:04;6.70;99.90
1301;DHT22;59099;48.806;9.160;2022-11-20T08:08:30;6.70;99.90
1301;DHT22;59099;48.806;9.160;2022-11-20T08:10:58;6.90;99.90
1301;DHT22;59099;48.806;9.160;2022-11-20T08:13:44;6.90;99.90
1301;DHT22;59099;48.806;9.160;2022-11-20T08:16:29;7.00;99.90
1301;DHT22;59099;48.806;9.160;2022-11-20T08:18:54;7.00;99.90
1301;DHT22;59099;48.806;9.160;2022-11-20T08:21:20;7.00;99.90
1301;DHT22;59099;48.806;9.160;2022-11-20T08:23:46;7.10;99.90
1301;DHT22;59099;48.806;9.160;2022-11-20T08:26:12;7.10;99.90
1301;DHT22;59099;48.806;9.160;2022-11-20T08:28:37;7.20;99.90
1301;DHT22;59099;48.806;9.160;2022-11-20T08:31:04;7.30;99.90
1301;DHT22;59099;48.806;9.160;2022-11-20T08:33:30;7.30;99.90
1301;DHT22;59099;48.806;9.160;2022-11-20T08:36:02;7.30;99.90
1301;DHT22;59099;48.806;9.160;2022-11-20T08:38:29;7.40;99.90
1301;DHT22;59099;48.806;9.160;2022-11-20T08:40:59;7.40;99.90
1301;DHT22;59099;48.806;9.160;2022-11-20T08:43:44;7.50;99.90
1301;DHT22;59099;48.806;9.160;2022-11-20T08:46:10;7.60;99.90
1301;DHT22;59099;48.806;9.160;2022-11-20T08:48:36;7.70;99.90
1301;DHT22;59099;48.806;9.160;2022-11-20T08:51:01;7.80;99.90
1301;DHT22;59099;48.806;9.160;2022-11-20T08:53:27;7.90;99.90
1301;DHT22;59099;48.806;9.160;2022-11-20T08:55:53;7.90;99.90
1301;DHT22;59099;48.806;9.160;2022-11-20T08:58:19;7.90;99.90
1301;DHT22;59099;48.806;9.160;2022-11-20T09:00:44;8.00;99.90
1301;DHT22;59099;48.806;9.160;2022-11-20T09:03:10;7.90;99.90
1301;DHT22;59099;48.806;9.160;2022-11-20T09:05:36;8.00;99.90
1301;DHT22;59099;48.806;9.160;2022-11-20T09:08:01;8.10;99.90
1301;DHT22;59099;48.806;9.160;2022-11-20T09:10:27;8.10;99.90
1301;DHT22;59099;48.806;9.160;2022-11-20T09:12:54;8.10;99.90
1301;DHT22;59099;48.806;9.160;2022-11-20T09:15:20;8.10;99.90
1301;DHT22;59099;48.806;9.160;2022-11-20T09:17:58;8.20;99.90
1301;DHT22;59099;48.806;9.160;2022-11-20T09:20:24;8.10;99.90
1301;DHT22;59099;48.806;9.160;2022-11-20T09:22:50;8.10;99.90
1301;DHT22;59099;48.806;9.160;2022-11-20T09:25:17;8.10;99.90
1301;DHT22;59099;48.806;9.160;2022-11-20T09:27:42;8.00;99.90
1301;DHT22;59099;48.806;9.160;2022-11-20T09:30:10;8.00;99.90
1301;DHT22;59099;48.806;9.160;2022-11-20T09:32:35;8.10;99.90
1301;DHT22;59099;48.806;9.160;2022-11-20T09:35:01;8.10;99.90
1301;DHT22;59099;48.806;9.160;2022-11-20T09:37:27;8.20;99.90
1301;DHT22;59099;48.806;9.160;2022-11-20T09:39:53;8.10;99.90
1301;DHT22;59099;48.806;9.160;2022-11-20T09:45:28;8.00;99.90
1301;DHT22;59099;48.806;9.160;2022-11-20T09:56:33;7.80;99.90
1301;DHT22;59099;48.806;9.160;2022-11-20T09:59:08;7.90;99.90
1301;DHT22;59099;48.806;9.160;2022-11-20T10:01:39;7.70;99.90
1301;DHT22;59099;48.806;9.160;2022-11-20T10:04:17;7.70;99.90
1301;DHT22;59099;48.806;9.160;2022-11-20T10:09:49;7.80;99.90
1301;DHT22;59099;48.806;9.160;2022-11-20T10:12:27;7.70;99.90
1301;DHT22;59099;48.806;9.160;2022-11-20T10:15:12;7.80;99.90
1301;DHT22;59099;48.806;9.160;2022-11-20T10:20:33;7.60;99.90
1301;DHT22;59099;48.806;9.160;2022-11-20T10:30:59;7.30;99.90
1301;DHT22;59099;48.806;9.160;2022-11-20T10:33:27;7.20;99.90
1301;DHT22;59099;48.806;9.160;2022-11-20T10:36:29;7.00;99.90
1301;DHT22;59099;48.806;9.160;2022-11-20T10:39:04;6.70;99.90
1301;DHT22;59099;48.806;9.160;2022-11-20T10:41:40;6.70;99.90
1301;DHT22;59099;48.806;9.160;2022-11-20T10:44:17;6.70;99.90
1301;DHT22;59099;48.806;9.160;2022-11-20T10:47:04;6.70;99.90
1301;DHT22;59099;48.806;9.160;2022-11-20T10:49:32;6.70;99.90
1301;DHT22;59099;48.806;9.160;2022-11-20T10:52:39;6.60;99.90
1301;DHT22;59099;48.806;9.160;2022-11-20T10:57:53;6.60;99.90
1301;DHT22;59099;48.806;9.160;2022-11-20T11:00:22;6.70;99.90
1301;DHT22;59099;48.806;9.160;2022-11-20T11:02:53;6.60;99.90
1301;DHT22;59099;48.806;9.160;2022-11-20T11:08:00;6.80;99.90
1301;DHT22;59099;48.806;9.160;2022-11-20T11:10:53;6.90;99.90
1301;DHT22;59099;48.806;9.160;2022-11-20T11:13:25;7.00;99.90
1301;DHT22;59099;48.806;9.160;2022-11-20T11:15:51;6.90;99.90
1301;DHT22;59099;48.806;9.160;2022-11-20T11:18:32;6.90;99.90
1301;DHT22;59099;48.806;9.160;2022-11-20T11:21:02;6.90;99.90
1301;DHT22;59099;48.806;9.160;2022-11-20T11:26:01;6.90;99.90
1301;DHT22;59099;48.806;9.160;2022-11-20T11:28:27;7.40;99.90
1301;DHT22;59099;48.806;9.160;2022-11-20T11:30:54;8.10;99.90
1301;DHT22;59099;48.806;9.160;2022-11-20T11:33:30;9.00;99.90
1301;DHT22;59099;48.806;9.160;2022-11-20T11:36:01;10.20;99.90
1301;DHT22;59099;48.806;9.160;2022-11-20T11:38:34;11.70;99.90
1301;DHT22;59099;48.806;9.160;2022-11-20T11:41:00;12.60;99.90
1301;DHT22;59099;48.806;9.160;2022-11-20T11:43:30;13.30;99.90
1301;DHT22;59099;48.806;9.160;2022-11-20T11:46:36;14.00;99.90
1301;DHT22;59099;48.806;9.160;2022-11-20T11:54:37;16.50;99.90
1301;DHT22;59099;48.806;9.160;2022-11-20T11:57:37;16.90;99.90
1301;DHT22;59099;48.806;9.160;2022-11-20T12:00:16;16.60;99.90
1301;DHT22;59099;48.806;9.160;2022-11-20T12:05:40;16.70;99.90
1301;DHT22;59099;48.806;9.160;2022-11-20T12:11:06;15.30;99.90
1301;DHT22;59099;48.806;9.160;2022-11-20T12:16:14;13.70;99.90
1301;DHT22;59099;48.806;9.160;2022-11-20T12:18:41;13.50;99.90
1301;DHT22;59099;48.806;9.160;2022-11-20T12:31:39;11.90;99.90
1301;DHT22;59099;48.806;9.160;2022-11-20T13:07:13;14.30;99.90
1301;DHT22;59099;48.806;9.160;2022-11-20T13:09:48;13.70;99.90
1301;DHT22;59099;48.806;9.160;2022-11-20T13:20:12;11.40;99.90
1301;DHT22;59099;48.806;9.160;2022-11-20T13:25:10;11.30;99.90
1301;DHT22;59099;48.806;9.160;2022-11-20T13:27:36;10.80;99.90
1301;DHT22;59099;48.806;9.160;2022-11-20T13:30:15;10.80;99.90
1301;DHT22;59099;48.806;9.160;2022-11-20T13:33:09;10.90;99.90
1301;DHT22;59099;48.806;9.160;2022-11-20T13:36:22;10.70;99.90
1301;DHT22;59099;48.806;9.160;2022-11-20T13:38:50;10.40;99.90
1301;DHT22;59099;48.806;9.160;2022-11-20T13:41:34;10.10;99.90
1301;DHT22;59099;48.806;9.160;2022-11-20T13:44:23;9.60;99.90
1301;DHT22;59099;48.806;9.160;2022-11-20T13:46:50;9.50;99.90
1301;DHT22;59099;48.806;9.160;2022-11-20T13:49:38;9.30;99.90
1301;DHT22;59099;48.806;9.160;2022-11-20T14:00:23;9.10;99.90
1301;DHT22;59099;48.806;9.160;2022-11-20T14:03:22;9.00;99.90
1301;DHT22;59099;48.806;9.160;2022-11-20T14:06:02;9.50;99.90
1301;DHT22;59099;48.806;9.160;2022-11-20T14:08:39;9.70;99.90
1301;DHT22;59099;48.806;9.160;2022-11-20T14:11:27;9.40;99.90
1301;DHT22;59099;48.806;9.160;2022-11-20T14:14:16;9.40;99.90
1301;DHT22;59099;48.806;9.160;2022-11-20T14:16:43;9.40;99.90
1301;DHT22;59099;48.806;9.160;2022-11-20T14:22:27;8.90;99.90
1301;DHT22;59099;48.806;9.160;2022-11-20T14:24:34;8.80;99.90
1301;DHT22;59099;48.806;9.160;2022-11-20T14:27:00;8.80;99.90
1301;DHT22;59099;48.806;9.160;2022-11-20T14:29:29;8.70;99.90
1301;DHT22;59099;48.806;9.160;2022-11-20T14:31:59;8.70;99.90
1301;DHT22;59099;48.806;9.160;2022-11-20T14:34:27;8.60;99.90
1301;DHT22;59099;48.806;9.160;2022-11-20T14:36:57;8.50;99.90
1301;DHT22;59099;48.806;9.160;2022-11-20T14:39:35;8.60;99.90
1301;DHT22;59099;48.806;9.160;2022-11-20T14:42:03;8.60;99.90
1301;DHT22;59099;48.806;9.160;2022-11-20T14:44:39;8.50;99.90
1301;DHT22;59099;48.806;9.160;2022-11-20T14:47:08;8.50;99.90
1301;DHT22;59099;48.806;9.160;2022-11-20T14:49:37;8.40;99.90
1301;DHT22;59099;48.806;9.160;2022-11-20T14:52:13;8.40;99.90
1301;DHT22;59099;48.806;9.160;2022-11-20T14:54:56;8.50;99.90
1301;DHT22;59099;48.806;9.160;2022-11-20T14:57:36;8.50;99.90
1301;DHT22;59099;48.806;9.160;2022-11-20T15:02:45;8.50;99.90
1301;DHT22;59099;48.806;9.160;2022-11-20T15:05:11;8.60;99.90
1301;DHT22;59099;48.806;9.160;2022-11-20T15:07:46;8.50;99.90
1301;DHT22;59099;48.806;9.160;2022-11-20T15:10:20;8.50;99.90
1301;DHT22;59099;48.806;9.160;2022-11-20T15:15:33;8.30;99.90
1301;DHT22;59099;48.806;9.160;2022-11-20T15:18:00;8.20;99.90
1301;DHT22;59099;48.806;9.160;2022-11-20T15:20:30;8.10;99.90
1301;DHT22;59099;48.806;9.160;2022-11-20T15:22:56;8.10;99.90
1301;DHT22;59099;48.806;9.160;2022-11-20T15:25:22;8.10;99.90
1301;DHT22;59099;48.806;9.160;2022-11-20T15:27:55;8.00;99.90
1301;DHT22;59099;48.806;9.160;2022-11-20T15:30:22;8.00;99.90
1301;DHT22;59099;48.806;9.160;2022-11-20T15:32:51;8.00;99.90
1301;DHT22;59099;48.806;9.160;2022-11-20T15:35:25;7.90;99.90
1301;DHT22;59099;48.806;9.160;2022-11-20T15:37:51;7.90;99.90
1301;DHT22;59099;48.806;9.160;2022-11-20T15:40:17;7.90;99.90
1301;DHT22;59099;48.806;9.160;2022-11-20T15:42:42;7.80;99.90
1301;DHT22;59099;48.806;9.160;2022-11-20T15:45:45;7.70;99.90
1301;DHT22;59099;48.806;9.160;2022-11-20T15:48:23;7.60;99.90
1301;DHT22;59099;48.806;9.160;2022-11-20T15:53:21;7.50;99.90
1301;DHT22;59099;48.806;9.160;2022-11-20T15:55:47;7.50;99.90
1301;DHT22;59099;48.806;9.160;2022-11-20T15:58:12;7.50;99.90
1301;DHT22;59099;48.806;9.160;2022-11-20T16:00:38;7.40;99.90
1301;DHT22;59099;48.806;9.160;2022-11-20T16:03:04;7.40;99.90
1301;DHT22;59099;48.806;9.160;2022-11-20T16:05:30;7.40;99.90
1301;DHT22;59099;48.806;9.160;2022-11-20T16:07:56;7.30;99.90
1301;DHT22;59099;48.806;9.160;2022-11-20T16:10:23;7.30;99.90
1301;DHT22;59099;48.806;9.160;2022-11-20T16:12:49;7.30;99.90
1301;DHT22;59099;48.806;9.160;2022-11-20T16:15:34;7.20;99.90
1301;DHT22;59099;48.806;9.160;2022-11-20T16:18:14;7.10;99.90
1301;DHT22;59099;48.806;9.160;2022-11-20T16:20:40;7.10;99.90
1301;DHT22;59099;48.806;9.160;2022-11-20T16:23:06;7.00;99.90
1301;DHT22;59099;48.806;9.160;2022-11-20T16:25:32;7.10;99.90
1301;DHT22;59099;48.806;9.160;2022-11-20T16:27:58;7.00;99.90
1301;DHT22;59099;48.806;9.160;2022-11-20T16:30:24;6.90;99.90
1301;DHT22;59099;48.806;9.160;2022-11-20T16:32:50;6.80;99.90
1301;DHT22;59099;48.806;9.160;2022-11-20T16:35:16;6.80;99.90
1301;DHT22;59099;48.806;9.160;2022-11-20T16:37:42;6.70;99.90
1301;DHT22;59099;48.806;9.160;2022-11-20T16:40:10;6.80;99.90
1301;DHT22;59099;48.806;9.160;2022-11-20T16:42:36;6.90;99.90
1301;DHT22;59099;48.806;9.160;2022-11-20T16:45:03;6.90;99.90
1301;DHT22;59099;48.806;9.160;2022-11-20T16:47:36;6.90;99.90
1301;DHT22;59099;48.806;9.160;2022-11-20T16:50:03;6.80;99.90
1301;DHT22;59099;48.806;9.160;2022-11-20T16:52:30;6.80;99.90
1301;DHT22;59099;48.806;9.160;2022-11-20T16:54:57;6.90;99.90
1301;DHT22;59099;48.806;9.160;2022-11-20T16:57:23;6.80;99.90
1301;DHT22;59099;48.806;9.160;2022-11-20T16:59:48;6.80;99.90
1301;DHT22;59099;48.806;9.160;2022-11-20T17:02:15;6.80;99.90
1301;DHT22;59099;48.806;9.160;2022-11-20T17:04:41;6.80;99.90
1301;DHT22;59099;48.806;9.160;2022-11-20T17:07:07;6.90;99.90
1301;DHT22;59099;48.806;9.160;2022-11-20T17:09:33;6.90;99.90
1301;DHT22;59099;48.806;9.160;2022-11-20T17:11:59;6.90;99.90
1301;DHT22;59099;48.806;9.160;2022-11-20T17:14:25;7.00;99.90
1301;DHT22;59099;48.806;9.160;2022-11-20T17:16:51;7.00;99.90
1301;DHT22;59099;48.806;9.160;2022-11-20T17:19:16;7.00;99.90
1301;DHT22;59099;48.806;9.160;2022-11-20T17:21:42;7.10;99.90
1301;DHT22;59099;48.806;9.160;2022-11-20T17:24:10;7.10;99.90
1301;DHT22;59099;48.806;9.160;2022-11-20T17:26:38;7.10;99.90
1301;DHT22;59099;48.806;9.160;2022-11-20T17:29:11;7.30;99.90
1301;DHT22;59099;48.806;9.160;2022-11-20T17:31:37;7.20;99.90
1301;DHT22;59099;48.806;9.160;2022-11-20T17:34:05;7.20;99.90
1301;DHT22;59099;48.806;9.160;2022-11-20T17:36:31;7.30;99.90
1301;DHT22;59099;48.806;9.160;2022-11-20T17:38:58;7.30;99.90
1301;DHT22;59099;48.806;9.160;2022-11-20T17:41:26;7.40;99.90
1301;DHT22;59099;48.806;9.160;2022-11-20T17:43:53;7.40;99.90
1301;DHT22;59099;48.806;9.160;2022-11-20T17:46:21;7.40;99.90
1301;DHT22;59099;48.806;9.160;2022-11-20T17:48:48;7.40;99.90
1301;DHT22;59099;48.806;9.160;2022-11-20T17:51:25;7.50;99.90
1301;DHT22;59099;48.806;9.160;2022-11-20T17:53:55;7.50;99.90
1301;DHT22;59099;48.806;9.160;2022-11-20T17:56:21;7.50;99.90
1301;DHT22;59099;48.806;9.160;2022-11-20T17:59:07;7.40;99.90
1301;DHT22;59099;48.806;9.160;2022-11-20T18:01:34;7.50;99.90
1301;DHT22;59099;48.806;9.160;2022-11-20T18:04:00;7.50;99.90
1301;DHT22;59099;48.806;9.160;2022-11-20T18:06:28;7.50;99.90
1301;DHT22;59099;48.806;9.160;2022-11-20T18:08:54;7.50;99.90
1301;DHT22;59099;48.806;9.160;2022-11-20T18:11:23;7.50;99.90
1301;DHT22;59099;48.806;9.160;2022-11-20T18:13:51;7.50;99.90
1301;DHT22;59099;48.806;9.160;2022-11-20T18:16:39;7.50;99.90
1301;DHT22;59099;48.806;9.160;2022-11-20T18:19:14;7.50;99.90
1301;DHT22;59099;48.806;9.160;2022-11-20T18:21:40;7.50;99.90
1301;DHT22;59099;48.806;9.160;2022-11-20T18:24:07;7.60;99.90
1301;DHT22;59099;48.806;9.160;2022-11-20T18:26:33;7.60;99.90
1301;DHT22;59099;48.806;9.160;2022-11-20T18:28:59;7.60;99.90
1301;DHT22;59099;48.806;9.160;2022-11-20T18:31:25;7.60;99.90
1301;DHT22;59099;48.806;9.160;2022-11-20T18:33:52;7.60;99.90
1301;DHT22;59099;48.806;9.160;2022-11-20T18:36:22;7.60;99.90
1301;DHT22;59099;48.806;9.160;2022-11-20T18:38:49;7.60;99.90